Mt New Conquest — V7GG4 — position and weather

sailwx.info

Track history (hours):
 
Tides and Currents Weather Stations Pressure Air Temp Water Temp Dewpoint Dewpoint Depression Visibility Wind Speed Wind Dir Waves Ship Positions

Mt New Conquest

Last reported at 2015-May-19 11:08 UTC. Time now 2015-May-27 11:57 UTC.
Position S 34°01' E 027°02'.
Warning: this ship's position is 8 days out of date.

Length 228 m.

MMSI: 538002089.

Date/timePositionNaut miles runAvg speedWind from/ knotsBaromVisibWave heightAir tempDewpointWater temp
2015-May-19 11:08S 34°01' E 027°02'2415.0
2015-May-19 09:32S 33°52' E 027°29'15415.4
2015-May-18 23:33S 32°46' E 030°15'1615.7
2015-May-18 22:32S 32°39' E 030°33'1515.6
2015-May-18 21:33S 32°33' E 030°49'1715.7
2015-May-18 20:28S 32°25' E 031°07'1515.6
2015-May-18 19:30S 32°19' E 031°23'1415.3
2015-May-18 18:33S 32°12' E 031°38'1515.1
2015-May-18 17:32S 32°06' E 031°55'1514.8
2015-May-18 16:33S 31°59' E 032°10'  
Track history (hours):
 
Tides and Currents Weather Stations Pressure Air Temp Water Temp Dewpoint Dewpoint Depression Visibility Wind Speed Wind Dir Waves Ship Positions

Mt New Conquest

Last reported at 2015-May-19 11:08 UTC. Time now 2015-May-27 11:57 UTC.
Position S 34°01' E 027°02'.
Warning: this ship's position is 8 days out of date.

Length 228 m.

MMSI: 538002089.

Date/timePositionNaut miles runAvg speedWind from/ knotsBaromVisibWave heightAir tempDewpointWater temp
2015-May-19 11:08S 34°01' E 027°02'2415.0
2015-May-19 09:32S 33°52' E 027°29'15415.4
2015-May-18 23:33S 32°46' E 030°15'1615.7
2015-May-18 22:32S 32°39' E 030°33'1515.6
2015-May-18 21:33S 32°33' E 030°49'1715.7
2015-May-18 20:28S 32°25' E 031°07'1515.6
2015-May-18 19:30S 32°19' E 031°23'1415.3
2015-May-18 18:33S 32°12' E 031°38'1515.1
2015-May-18 17:32S 32°06' E 031°55'1514.8
2015-May-18 16:33S 31°59' E 032°10'  

Dump ship's entire track history